Time;durP1;ratioP1;P1;durP2;ratioP2;P2;SDS_P1;SDS_P2;PMS_P1;PMS_P2;Temp;Humidity;BMP_temperature;BMP_pressure;BME280_temperature;BME280_humidity;BME280_pressure;Samples;Min_cycle;Max_cycle;Signal;HPM_P1;HPM_P2
2022/01/11 00:00:36;;;;;;;;;;;;;;;-14.36;58.42;97666.66;6374941;27;19945;-64
2022/01/11 00:03:38;;;;;;;;;;;;;;;-14.30;58.58;97655.94;6375017;27;20307;-64
2022/01/11 00:06:46;;;;;;;;;;;;;;;-14.20;58.51;97655.56;6375432;27;19926;-63
2022/01/11 00:09:51;;;;;;;;;;;;;;;-14.14;57.98;97642.31;6375559;27;19928;-62
2022/01/11 00:12:53;;;;;;;;;;;;;;;-14.13;58.19;97647.44;6375488;27;19923;-64
2022/01/11 00:15:58;;;;;;;;;;;;;;;-14.12;57.63;97649.19;6357438;27;19923;-62
2022/01/11 00:19:06;;;;;;;;;;;;;;;-14.12;58.07;97634.00;6375368;27;20018;-63
2022/01/11 00:22:16;;;;;;;;;;;;;;;-14.09;57.67;97634.13;6374990;27;19923;-63
2022/01/11 00:25:20;;;;;;;;;;;;;;;-14.08;57.76;97645.97;6375185;27;19930;-62
2022/01/11 00:28:22;;;;;;;;;;;;;;;-14.12;57.90;97639.06;6374545;27;19924;-63
2022/01/11 00:31:25;;;;;;;;;;;;;;;-14.16;58.21;97647.28;6373773;27;19927;-63
2022/01/11 00:34:36;;;;;;;;;;;;;;;-14.18;57.96;97643.84;6374499;27;20008;-63
2022/01/11 00:37:40;;;;;;;;;;;;;;;-14.23;57.83;97654.56;6375065;27;19919;-63
2022/01/11 00:40:41;;;;;;;;;;;;;;;-14.25;58.50;97645.22;6372419;27;19930;-63
2022/01/11 00:43:47;;;;;;;;;;;;;;;-14.20;58.21;97635.34;6374586;27;19923;-62
2022/01/11 00:46:48;;;;;;;;;;;;;;;-14.40;58.51;97639.53;6374543;27;19930;-63
2022/01/11 00:49:51;;;;;;;;;;;;;;;-14.50;58.98;97625.59;6374606;27;19929;-63
2022/01/11 00:52:52;;;;;;;;;;;;;;;-14.58;59.09;97608.41;6373440;27;19984;-63
2022/01/11 00:55:55;;;;;;;;;;;;;;;-14.50;58.83;97604.50;6374423;27;19923;-64
2022/01/11 00:58:59;;;;;;;;;;;;;;;-14.50;59.27;97595.28;6373351;27;19923;-64
2022/01/11 01:02:00;;;;;;;;;;;;;;;-14.24;59.46;97603.13;6373947;27;19923;-62
2022/01/11 01:05:04;;;;;;;;;;;;;;;-14.44;59.14;97599.72;6374447;27;19923;-63
2022/01/11 01:08:07;;;;;;;;;;;;;;;-14.46;59.69;97608.94;6374281;27;19927;-63
2022/01/11 01:11:10;;;;;;;;;;;;;;;-14.54;60.24;97602.69;6373888;27;19923;-64
2022/01/11 01:14:11;;;;;;;;;;;;;;;-14.54;60.32;97598.50;6372956;27;19962;-63
2022/01/11 01:17:14;;;;;;;;;;;;;;;-14.52;60.80;97583.41;6373936;27;20052;-63
2022/01/11 01:20:16;;;;;;;;;;;;;;;-14.63;60.75;97582.94;6373059;27;20313;-63
2022/01/11 01:23:19;;;;;;;;;;;;;;;-14.60;60.99;97583.09;6373800;27;19995;-63
2022/01/11 01:26:20;;;;;;;;;;;;;;;-14.71;61.38;97584.28;6373799;27;20285;-63
2022/01/11 01:29:22;;;;;;;;;;;;;;;-14.84;61.38;97582.84;6373530;27;19920;-63
2022/01/11 01:32:24;;;;;;;;;;;;;;;-14.83;61.36;97573.59;6373698;27;19923;-64
2022/01/11 01:35:30;;;;;;;;;;;;;;;-14.94;61.28;97570.63;6372743;27;20016;-64
2022/01/11 01:38:31;;;;;;;;;;;;;;;-15.03;61.88;97571.06;6372942;27;19923;-62
2022/01/11 01:41:32;;;;;;;;;;;;;;;-15.02;61.84;97566.88;6373004;27;19930;-62
2022/01/11 01:44:40;;;;;;;;;;;;;;;-15.03;61.88;97562.59;6373250;27;19924;-63
2022/01/11 01:47:41;;;;;;;;;;;;;;;-15.07;61.82;97558.22;6372627;27;19931;-64
2022/01/11 01:50:43;;;;;;;;;;;;;;;-15.04;61.99;97554.16;6372902;27;19924;-63
2022/01/11 01:53:46;;;;;;;;;;;;;;;-14.94;61.79;97553.78;6372110;27;19934;-64
2022/01/11 01:56:48;;;;;;;;;;;;;;;-14.80;61.94;97553.53;6372231;27;19950;-63
2022/01/11 01:59:49;;;;;;;;;;;;;;;-14.64;62.12;97552.56;6372274;27;19938;-63
2022/01/11 02:02:50;;;;;;;;;;;;;;;-14.51;61.87;97543.00;6371563;27;20030;-64
2022/01/11 02:05:52;;;;;;;;;;;;;;;-14.36;61.37;97536.88;6371644;27;20316;-64
2022/01/11 02:08:53;;;;;;;;;;;;;;;-14.25;61.35;97533.13;6371629;27;19923;-63
2022/01/11 02:11:55;;;;;;;;;;;;;;;-14.14;61.04;97526.88;6371493;27;19961;-64
2022/01/11 02:14:56;;;;;;;;;;;;;;;-14.00;60.77;97516.47;6372398;27;20222;-64
2022/01/11 02:18:11;;;;;;;;;;;;;;;-13.91;60.81;97526.94;6372402;27;19924;-63
2022/01/11 02:21:14;;;;;;;;;;;;;;;-13.83;60.40;97520.53;6372229;27;19927;-63
2022/01/11 02:24:18;;;;;;;;;;;;;;;-13.83;60.32;97510.41;6372024;27;20021;-63
2022/01/11 02:27:22;;;;;;;;;;;;;;;-13.79;60.33;97499.59;6371750;27;20400;-63
2022/01/11 02:30:23;;;;;;;;;;;;;;;-13.78;60.39;97493.75;6353325;27;20014;-63
2022/01/11 02:33:34;;;;;;;;;;;;;;;-13.82;60.33;97491.91;6372019;27;19923;-63
2022/01/11 02:36:36;;;;;;;;;;;;;;;-13.86;60.56;97495.97;6371499;27;19930;-63
2022/01/11 02:39:37;;;;;;;;;;;;;;;-13.85;60.55;97501.88;6352979;27;20312;-64
2022/01/11 02:42:38;;;;;;;;;;;;;;;-13.88;60.49;97494.19;6371928;27;20311;-64
2022/01/11 02:45:42;;;;;;;;;;;;;;;-13.88;60.31;97482.41;6370414;27;19923;-62
2022/01/11 02:48:43;;;;;;;;;;;;;;;-13.82;60.23;97490.22;6371541;27;19923;-63
2022/01/11 02:51:46;;;;;;;;;;;;;;;-13.80;60.20;97487.75;6371562;27;19927;-63
2022/01/11 02:54:47;;;;;;;;;;;;;;;-13.86;60.78;97480.78;6371690;28;20006;-64
2022/01/11 02:57:53;;;;;;;;;;;;;;;-13.89;60.31;97475.63;6371611;28;19927;-63
2022/01/11 03:00:54;;;;;;;;;;;;;;;-14.02;60.66;97479.31;6371127;28;19941;-63
2022/01/11 03:03:55;;;;;;;;;;;;;;;-14.02;60.67;97484.38;6372676;27;20013;-64
2022/01/11 03:06:57;;;;;;;;;;;;;;;-14.02;60.68;97484.38;6375740;27;19930;-62
2022/01/11 03:10:04;;;;;;;;;;;;;;;-14.03;61.18;97472.53;6376461;27;19923;-63
2022/01/11 03:13:09;;;;;;;;;;;;;;;-14.09;60.59;97464.72;6376285;27;19923;-63
2022/01/11 03:16:12;;;;;;;;;;;;;;;-14.22;60.95;97465.00;6376018;27;19931;-63
2022/01/11 03:19:13;;;;;;;;;;;;;;;-14.31;61.65;97469.69;6376454;27;19930;-63
2022/01/11 03:22:16;;;;;;;;;;;;;;;-14.38;61.98;97467.69;6376486;27;20005;-63
2022/01/11 03:25:20;;;;;;;;;;;;;;;-14.42;61.46;97460.81;6376541;27;19923;-63
2022/01/11 03:28:21;;;;;;;;;;;;;;;-14.36;62.11;97461.06;6375550;27;19923;-63
2022/01/11 03:31:23;;;;;;;;;;;;;;;-14.31;61.75;97454.53;6375747;27;19946;-63
2022/01/11 03:34:24;;;;;;;;;;;;;;;-14.16;61.88;97462.72;6357269;27;19934;-63
2022/01/11 03:37:25;;;;;;;;;;;;;;;-13.98;61.98;97454.13;6376237;27;19969;-63
2022/01/11 03:40:27;;;;;;;;;;;;;;;-13.90;61.43;97463.75;6375850;27;19927;-62
2022/01/11 03:43:28;;;;;;;;;;;;;;;-13.83;61.92;97468.28;6374761;27;19943;-63
2022/01/11 03:46:29;;;;;;;;;;;;;;;-13.69;61.57;97467.94;6374880;27;19923;-63
2022/01/11 03:49:30;;;;;;;;;;;;;;;-13.71;61.19;97465.34;6375228;27;19923;-63
2022/01/11 03:52:34;;;;;;;;;;;;;;;-13.65;61.33;97455.47;6374944;27;19924;-63
2022/01/11 03:58:52;;;;;;;;;;;;;;;-13.67;62.18;97474.81;6375462;27;19930;-64
2022/01/11 04:01:56;;;;;;;;;;;;;;;-13.68;62.04;97470.53;6374984;27;19923;-64
2022/01/11 04:05:00;;;;;;;;;;;;;;;-13.68;62.22;97475.59;6375276;27;20047;-64
2022/01/11 04:08:01;;;;;;;;;;;;;;;-13.72;61.86;97473.75;6374718;27;19930;-63
2022/01/11 04:11:07;;;;;;;;;;;;;;;-13.81;61.51;97468.34;6375163;27;19927;-64
2022/01/11 04:14:09;;;;;;;;;;;;;;;-13.75;62.18;97473.63;6374579;27;20384;-63
2022/01/11 04:17:10;;;;;;;;;;;;;;;-13.82;62.08;97484.31;6374225;27;19923;-64
2022/01/11 04:20:14;;;;;;;;;;;;;;;-13.83;61.93;97467.41;6374079;27;19946;-64
2022/01/11 04:23:18;;;;;;;;;;;;;;;-13.99;61.88;97457.47;6374935;27;19923;-64
2022/01/11 04:26:19;;;;;;;;;;;;;;;-14.04;62.71;97463.22;6373704;27;19927;-64
2022/01/11 04:29:22;;;;;;;;;;;;;;;-14.05;62.16;97453.03;6374246;27;20204;-63
2022/01/11 04:32:23;;;;;;;;;;;;;;;-13.99;62.43;97445.69;6374772;27;20001;-64
2022/01/11 04:35:24;;;;;;;;;;;;;;;-13.93;62.17;97447.59;6374638;27;19933;-63
2022/01/11 04:38:26;;;;;;;;;;;;;;;-13.65;62.15;97450.41;6374251;27;19923;-64
2022/01/11 04:41:30;;;;;;;;;;;;;;;-13.86;61.89;97431.88;6374740;27;19923;-63
2022/01/11 04:44:33;;;;;;;;;;;;;;;-13.83;62.05;97437.06;6373699;27;19923;-63
2022/01/11 04:47:34;;;;;;;;;;;;;;;-13.76;62.08;97431.41;6374423;27;19924;-63
2022/01/11 04:50:35;;;;;;;;;;;;;;;-13.68;61.94;97435.09;6374307;27;19930;-63
2022/01/11 04:53:38;;;;;;;;;;;;;;;-13.57;62.13;97426.25;6373446;27;19931;-64
2022/01/11 04:56:45;;;;;;;;;;;;;;;-13.42;61.85;97423.41;6374263;27;20411;-62
2022/01/11 04:59:47;;;;;;;;;;;;;;;-13.26;62.13;97409.66;6373334;27;19926;-63
2022/01/11 05:02:56;;;;;;;;;;;;;;;-13.12;61.56;97403.38;6374140;27;19924;-62
2022/01/11 05:05:57;;;;;;;;;;;;;;;-13.04;61.44;97420.53;6354984;27;19923;-62
2022/01/11 05:08:59;;;;;;;;;;;;;;;-13.01;61.47;97423.19;6373687;27;20011;-63
2022/01/11 05:12:00;;;;;;;;;;;;;;;-13.03;61.28;97407.06;6374036;27;19930;-63
2022/01/11 05:15:01;;;;;;;;;;;;;;;-12.92;61.37;97415.91;6373693;27;19971;-63
2022/01/11 05:18:04;;;;;;;;;;;;;;;-12.77;61.47;97416.41;6373198;27;20026;-64
2022/01/11 05:21:05;;;;;;;;;;;;;;;-12.63;61.40;97418.56;6372917;27;20019;-63
2022/01/11 05:24:07;;;;;;;;;;;;;;;-12.51;60.54;97408.81;6355064;27;20018;-63
2022/01/11 05:27:08;;;;;;;;;;;;;;;-12.46;60.82;97420.84;6354648;27;19968;-63
2022/01/11 05:30:10;;;;;;;;;;;;;;;-12.32;60.30;97415.38;6372797;27;20391;-63
2022/01/11 05:33:11;;;;;;;;;;;;;;;-12.24;60.51;97407.22;6372203;27;19923;-62
2022/01/11 05:36:12;;;;;;;;;;;;;;;-12.05;60.12;97412.88;6372816;27;20380;-63
2022/01/11 05:39:13;;;;;;;;;;;;;;;-11.95;59.92;97401.34;6372648;27;19969;-62
2022/01/11 05:42:14;;;;;;;;;;;;;;;-11.73;59.73;97407.91;6373261;27;19923;-63
2022/01/11 05:45:16;;;;;;;;;;;;;;;-11.68;59.24;97406.38;6372932;27;19957;-63
2022/01/11 05:48:20;;;;;;;;;;;;;;;-11.61;59.24;97419.28;6372644;27;19930;-63
2022/01/11 05:51:21;;;;;;;;;;;;;;;-11.49;59.41;97413.72;6372264;27;20021;-63
2022/01/11 05:54:22;;;;;;;;;;;;;;;-11.27;58.85;97420.28;6372278;27;19923;-63
2022/01/11 05:57:26;;;;;;;;;;;;;;;-11.27;58.73;97432.13;6371991;27;19930;-63
2022/01/11 06:00:30;;;;;;;;;;;;;;;-11.23;58.38;97426.31;6372555;27;19923;-63
2022/01/11 06:03:33;;;;;;;;;;;;;;;-11.12;57.40;97419.88;6372461;27;19924;-63
2022/01/11 06:06:34;;;;;;;;;;;;;;;-11.28;57.53;97426.19;6372467;27;19923;-62
2022/01/11 06:09:35;;;;;;;;;;;;;;;-11.30;57.15;97415.09;6353521;27;19924;-63
2022/01/11 06:12:36;;;;;;;;;;;;;;;-11.36;57.30;97420.00;6372130;27;19935;-63
2022/01/11 06:15:37;;;;;;;;;;;;;;;-11.18;57.36;97414.59;6372305;27;19923;-64
2022/01/11 06:18:38;;;;;;;;;;;;;;;-11.03;56.52;97411.66;6371089;27;19931;-63
2022/01/11 06:21:42;;;;;;;;;;;;;;;-11.10;56.92;97418.22;6353991;27;20308;-63
2022/01/11 06:24:45;;;;;;;;;;;;;;;-11.11;57.20;97411.41;6372163;27;19923;-63
2022/01/11 06:27:46;;;;;;;;;;;;;;;-11.05;57.33;97416.66;6371273;27;19926;-63
2022/01/11 06:30:52;;;;;;;;;;;;;;;-11.05;57.50;97411.59;6372178;27;19923;-63
2022/01/11 06:33:53;;;;;;;;;;;;;;;-10.85;57.48;97410.44;6371645;27;19946;-64
2022/01/11 06:36:59;;;;;;;;;;;;;;;-10.63;57.29;97405.94;6372018;27;19924;-63
2022/01/11 06:40:02;;;;;;;;;;;;;;;-10.48;56.52;97401.25;6370811;27;19988;-63
2022/01/11 06:43:04;;;;;;;;;;;;;;;-10.40;56.21;97399.75;6371082;27;20016;-63
2022/01/11 06:46:08;;;;;;;;;;;;;;;-10.40;56.25;97394.69;6371037;27;19945;-64
2022/01/11 06:49:11;;;;;;;;;;;;;;;-10.46;56.39;97386.91;6371685;27;19923;-62
2022/01/11 06:52:12;;;;;;;;;;;;;;;-10.45;56.46;97388.59;6371522;27;19930;-63
2022/01/11 06:55:17;;;;;;;;;;;;;;;-10.30;56.48;97379.63;6371894;28;20392;-63
2022/01/11 06:58:21;;;;;;;;;;;;;;;-10.07;56.23;97375.94;6371484;28;19924;-63
2022/01/11 07:01:22;;;;;;;;;;;;;;;-9.88;55.59;97371.25;6371209;28;19946;-63
2022/01/11 07:04:25;;;;;;;;;;;;;;;-9.73;55.22;97375.03;6371543;28;19924;-62
2022/01/11 07:07:26;;;;;;;;;;;;;;;-9.59;54.83;97357.50;6371594;28;19928;-63
2022/01/11 07:10:27;;;;;;;;;;;;;;;-9.56;55.00;97360.13;6371267;28;19927;-63
2022/01/11 07:13:28;;;;;;;;;;;;;;;-9.40;54.98;97362.97;6371585;28;20072;-62
2022/01/11 07:16:29;;;;;;;;;;;;;;;-9.31;55.03;97355.53;6371285;28;20297;-63
2022/01/11 07:19:30;;;;;;;;;;;;;;;-9.14;54.78;97354.19;6370923;28;20297;-64
2022/01/11 07:22:37;;;;;;;;;;;;;;;-8.95;54.19;97342.63;6371382;28;19931;-63
2022/01/11 07:25:41;;;;;;;;;;;;;;;-8.80;53.78;97342.09;6371433;28;20026;-63
2022/01/11 07:28:46;;;;;;;;;;;;;;;-8.87;53.90;97336.00;6370787;28;19923;-64
2022/01/11 07:31:47;;;;;;;;;;;;;;;-8.88;54.08;97343.63;6371051;28;19923;-64
2022/01/11 07:34:48;;;;;;;;;;;;;;;-8.85;54.26;97338.59;6370488;28;20043;-63
2022/01/11 07:37:52;;;;;;;;;;;;;;;-8.74;54.35;97342.19;6352351;28;19920;-64
2022/01/11 07:40:53;;;;;;;;;;;;;;;-8.76;53.57;97343.84;6371058;28;19923;-63
2022/01/11 07:43:57;;;;;;;;;;;;;;;-8.73;54.12;97343.03;6371495;28;19923;-63
2022/01/11 07:47:03;;;;;;;;;;;;;;;-8.69;53.83;97335.50;6370850;28;19920;-63
2022/01/11 07:50:06;;;;;;;;;;;;;;;-8.62;53.11;97332.19;6372725;27;20406;-63
2022/01/11 07:53:07;;;;;;;;;;;;;;;-8.55;53.28;97332.28;6375132;27;19923;-64
2022/01/11 07:56:09;;;;;;;;;;;;;;;-8.38;53.07;97328.28;6375704;27;19976;-64
2022/01/11 07:59:11;;;;;;;;;;;;;;;-8.19;51.98;97329.47;6374740;27;20285;-62
2022/01/11 08:02:15;;;;;;;;;;;;;;;-8.29;51.72;97318.25;6375237;27;20407;-63
2022/01/11 08:05:18;;;;;;;;;;;;;;;-8.24;52.17;97324.28;6374695;27;19950;-63
2022/01/11 08:08:19;;;;;;;;;;;;;;;-8.19;51.24;97309.91;6375596;27;20403;-63
2022/01/11 08:11:20;;;;;;;;;;;;;;;-8.19;51.25;97312.44;6374939;27;19924;-64
2022/01/11 08:14:24;;;;;;;;;;;;;;;-8.09;50.23;97302.41;6339283;27;20035;-62
2022/01/11 08:17:28;;;;;;;;;;;;;;;-8.35;50.19;97305.38;6374314;27;20044;-62
2022/01/11 08:20:34;;;;;;;;;;;;;;;-8.47;50.42;97300.13;6374748;27;19923;-64
2022/01/11 08:23:38;;;;;;;;;;;;;;;-8.54;49.78;97303.41;6374783;27;19923;-64
2022/01/11 08:26:41;;;;;;;;;;;;;;;-8.53;49.38;97300.03;6374835;27;19930;-63
2022/01/11 08:29:43;;;;;;;;;;;;;;;-8.38;49.00;97295.13;6374072;27;20389;-63
2022/01/11 08:32:44;;;;;;;;;;;;;;;-8.08;48.43;97293.88;6373812;27;19931;-63
2022/01/11 08:35:45;;;;;;;;;;;;;;;-7.79;47.11;97281.53;6374151;27;19927;-64
2022/01/11 08:38:49;;;;;;;;;;;;;;;-8.16;47.25;97276.75;6374782;27;20260;-63
2022/01/11 08:41:50;;;;;;;;;;;;;;;-8.38;47.94;97282.34;6373464;27;20019;-63
2022/01/11 08:44:51;;;;;;;;;;;;;;;-8.41;48.33;97279.78;6373042;27;20312;-65
2022/01/11 08:47:52;;;;;;;;;;;;;;;-8.34;48.24;97281.59;6373566;27;19923;-63
2022/01/11 08:50:55;;;;;;;;;;;;;;;-8.23;47.93;97274.97;6373852;27;19946;-63
2022/01/11 08:53:57;;;;;;;;;;;;;;;-8.11;47.60;97273.41;6373931;27;19924;-64
2022/01/11 08:57:00;;;;;;;;;;;;;;;-7.84;47.91;97271.25;6374031;27;20324;-63
2022/01/11 09:00:06;;;;;;;;;;;;;;;-7.03;46.72;97271.34;6374168;27;19927;-63
2022/01/11 09:03:08;;;;;;;;;;;;;;;-5.55;44.23;97263.03;6354248;27;20048;-64
2022/01/11 09:06:11;;;;;;;;;;;;;;;-3.46;41.32;97246.03;6374168;27;19923;-63
2022/01/11 09:09:13;;;;;;;;;;;;;;;-2.41;39.56;97247.16;6373084;27;19999;-63
2022/01/11 09:12:15;;;;;;;;;;;;;;;-1.41;37.72;97251.38;6372905;27;19924;-63
2022/01/11 09:15:19;;;;;;;;;;;;;;;0.21;35.98;97255.91;6373942;27;20014;-63
2022/01/11 09:18:23;;;;;;;;;;;;;;;1.98;34.56;97256.47;6372963;27;19923;-64
2022/01/11 09:21:26;;;;;;;;;;;;;;;4.07;32.05;97267.84;6373352;27;19930;-63
2022/01/11 09:24:29;;;;;;;;;;;;;;;5.10;31.40;97262.53;6373327;27;20400;-62
2022/01/11 09:27:33;;;;;;;;;;;;;;;5.42;31.30;97257.88;6372841;27;20419;-63
2022/01/11 09:30:34;;;;;;;;;;;;;;;5.94;30.60;97255.84;6372426;27;20014;-63
2022/01/11 09:33:35;;;;;;;;;;;;;;;7.35;29.85;97261.09;6372553;27;19976;-63
2022/01/11 09:36:39;;;;;;;;;;;;;;;7.27;28.76;97255.34;6372150;27;19931;-63
2022/01/11 09:39:43;;;;;;;;;;;;;;;5.08;32.81;97256.53;6373219;27;19923;-63
2022/01/11 09:42:47;;;;;;;;;;;;;;;2.42;36.69;97248.44;6371988;27;19923;-63
2022/01/11 09:45:48;;;;;;;;;;;;;;;1.78;35.70;97243.09;6371549;27;20397;-64
2022/01/11 09:48:49;;;;;;;;;;;;;;;1.50;37.02;97235.13;6371841;27;20428;-63
2022/01/11 09:51:53;;;;;;;;;;;;;;;1.12;36.63;97242.88;6371840;27;20048;-63
2022/01/11 09:54:55;;;;;;;;;;;;;;;1.10;35.67;97236.00;6372017;27;19930;-63
2022/01/11 09:57:56;;;;;;;;;;;;;;;0.44;36.82;97227.84;6371494;27;19925;-63
2022/01/11 10:00:57;;;;;;;;;;;;;;;0.95;35.26;97231.16;6372218;27;19923;-63
2022/01/11 10:04:03;;;;;;;;;;;;;;;2.04;33.25;97237.31;6372133;27;20308;-63
2022/01/11 10:07:06;;;;;;;;;;;;;;;2.92;32.64;97233.19;6371164;27;19923;-64
2022/01/11 10:10:12;;;;;;;;;;;;;;;1.85;32.47;97230.84;6371672;27;19926;-62
2022/01/11 10:13:36;;;;;;;;;;;;;;;-0.48;35.16;97242.38;6371987;27;19934;-63
2022/01/11 10:16:39;;;;;;;;;;;;;;;-2.21;36.54;97235.81;6372485;27;19923;-64
2022/01/11 10:19:42;;;;;;;;;;;;;;;-1.56;35.52;97239.47;6371464;27;20355;-63
2022/01/11 10:22:52;;;;;;;;;;;;;;;-1.01;33.94;97236.22;6371369;27;19924;-63
2022/01/11 10:25:53;;;;;;;;;;;;;;;-1.56;32.93;97241.19;6371040;27;19923;-63
2022/01/11 10:28:57;;;;;;;;;;;;;;;-3.06;35.87;97238.97;6371749;27;19923;-62
2022/01/11 10:32:00;;;;;;;;;;;;;;;-4.29;37.46;97238.50;6371197;27;20396;-63
2022/01/11 10:35:11;;;;;;;;;;;;;;;-5.28;39.19;97239.22;6370713;27;20005;-63
2022/01/11 10:38:26;;;;;;;;;;;;;;;-6.27;41.56;97240.47;6372174;27;19923;-64
2022/01/11 10:41:53;;;;;;;;;;;;;;;-7.05;42.19;97237.22;6371187;27;19928;-63
2022/01/11 10:44:54;;;;;;;;;;;;;;;-7.75;43.69;97238.16;6367146;27;19968;-63
2022/01/11 10:48:00;;;;;;;;;;;;;;;-8.36;43.81;97233.06;6352239;27;20017;-63
2022/01/11 10:51:02;;;;;;;;;;;;;;;-8.61;44.45;97216.53;6369947;27;20012;-63
2022/01/11 10:54:08;;;;;;;;;;;;;;;-8.81;44.47;97221.34;6370693;27;19924;-63
2022/01/11 10:57:20;;;;;;;;;;;;;;;-8.96;44.82;97218.53;6370456;28;20414;-63
2022/01/11 11:00:30;;;;;;;;;;;;;;;-9.28;45.00;97207.81;6371302;28;19923;-64
2022/01/11 11:03:35;;;;;;;;;;;;;;;-9.62;45.39;97219.91;6371029;28;20464;-64
2022/01/11 11:06:38;;;;;;;;;;;;;;;-9.84;45.40;97208.44;6370785;28;19927;-63
2022/01/11 11:09:43;;;;;;;;;;;;;;;-10.03;46.07;97212.28;6370721;28;20060;-63
2022/01/11 11:12:53;;;;;;;;;;;;;;;-10.27;46.50;97209.25;6370985;28;19923;-63
2022/01/11 11:15:57;;;;;;;;;;;;;;;-10.26;46.41;97209.25;6371712;28;19923;-63
2022/01/11 11:19:06;;;;;;;;;;;;;;;-10.13;46.15;97214.59;6371277;28;19923;-64
2022/01/11 11:22:07;;;;;;;;;;;;;;;-10.14;46.03;97203.56;6370524;28;20404;-64
2022/01/11 11:25:08;;;;;;;;;;;;;;;-10.30;46.12;97206.63;6372714;27;20415;-64
2022/01/11 11:28:10;;;;;;;;;;;;;;;-10.56;46.90;97191.66;6375617;27;20328;-64
2022/01/11 11:31:14;;;;;;;;;;;;;;;-10.94;47.34;97196.72;6375559;27;19930;-64
2022/01/11 11:34:22;;;;;;;;;;;;;;;-11.35;48.47;97198.22;6376213;27;20443;-64
2022/01/11 11:37:27;;;;;;;;;;;;;;;-11.68;49.18;97203.31;6375446;27;19930;-64
2022/01/11 11:40:31;;;;;;;;;;;;;;;-11.96;49.81;97202.56;6376017;27;20366;-64
2022/01/11 11:43:33;;;;;;;;;;;;;;;-12.18;50.94;97210.38;6375184;27;20040;-64
2022/01/11 11:46:46;;;;;;;;;;;;;;;-12.44;51.26;97197.81;6374990;27;20054;-63
2022/01/11 11:49:51;;;;;;;;;;;;;;;-12.66;52.09;97197.16;6374637;27;19923;-64
2022/01/11 11:52:55;;;;;;;;;;;;;;;-12.81;52.27;97196.69;6375708;27;19923;-64
2022/01/11 11:56:11;;;;;;;;;;;;;;;-12.95;52.20;97197.94;6375217;27;20371;-65
2022/01/11 11:59:18;;;;;;;;;;;;;;;-13.07;52.79;97187.44;6375459;27;20305;-63
2022/01/11 12:02:41;;;;;;;;;;;;;;;-13.29;53.28;97191.81;6375206;27;20373;-63
2022/01/11 12:05:47;;;;;;;;;;;;;;;-13.37;53.77;97200.81;6374599;27;19919;-63
2022/01/11 12:08:58;;;;;;;;;;;;;;;-13.44;53.64;97188.78;6374636;27;19923;-63
2022/01/11 12:12:00;;;;;;;;;;;;;;;-13.57;54.02;97198.50;6374711;27;20000;-64
2022/01/11 12:15:21;;;;;;;;;;;;;;;-13.73;54.45;97192.84;6374138;27;20312;-64
2022/01/11 12:18:22;;;;;;;;;;;;;;;-13.87;54.53;97195.78;6374036;27;19929;-63
2022/01/11 12:21:24;;;;;;;;;;;;;;;-13.89;54.92;97196.53;6373887;27;20367;-64
2022/01/11 12:24:34;;;;;;;;;;;;;;;-13.87;55.17;97194.91;6374421;27;20371;-64
2022/01/11 12:27:53;;;;;;;;;;;;;;;-13.94;55.77;97188.78;6374029;27;19923;-64
2022/01/11 12:31:14;;;;;;;;;;;;;;;-14.04;55.94;97192.66;6373733;27;19929;-64
2022/01/11 12:34:39;;;;;;;;;;;;;;;-14.16;56.13;97192.22;6374519;27;19923;-64
2022/01/11 12:37:44;;;;;;;;;;;;;;;-14.27;56.22;97180.84;6373381;27;19927;-64
2022/01/11 12:40:48;;;;;;;;;;;;;;;-14.37;56.21;97177.13;6374359;27;20307;-64
2022/01/11 12:44:13;;;;;;;;;;;;;;;-14.40;56.24;97181.22;6374291;27;20010;-64
2022/01/11 12:47:17;;;;;;;;;;;;;;;-14.44;56.38;97184.44;6374307;27;19931;-64
2022/01/11 12:50:21;;;;;;;;;;;;;;;-14.50;56.54;97180.88;6373473;27;20026;-63
2022/01/11 12:53:24;;;;;;;;;;;;;;;-14.47;56.54;97173.41;6373541;27;19923;-63
2022/01/11 12:56:25;;;;;;;;;;;;;;;-14.47;56.52;97185.16;6372923;27;19923;-64
2022/01/11 12:59:30;;;;;;;;;;;;;;;-14.49;56.34;97180.06;6373895;27;20252;-64
2022/01/11 13:02:35;;;;;;;;;;;;;;;-14.50;56.06;97185.91;6374071;27;20001;-64
2022/01/11 13:05:40;;;;;;;;;;;;;;;-14.49;56.41;97185.13;6373469;27;19923;-65
2022/01/11 13:08:44;;;;;;;;;;;;;;;-14.32;56.45;97185.75;6372988;27;20091;-65
2022/01/11 13:11:53;;;;;;;;;;;;;;;-14.29;56.68;97195.97;6373582;27;19923;-64
2022/01/11 13:15:10;;;;;;;;;;;;;;;-14.27;56.91;97189.28;6373026;27;20031;-64
2022/01/11 13:18:12;;;;;;;;;;;;;;;-14.37;57.15;97186.38;6372470;27;20429;-64
2022/01/11 13:21:20;;;;;;;;;;;;;;;-14.49;57.37;97182.59;6373496;27;20428;-64
2022/01/11 13:24:25;;;;;;;;;;;;;;;-14.59;57.41;97179.72;6373406;27;19923;-63
2022/01/11 13:27:26;;;;;;;;;;;;;;;-14.67;57.29;97181.09;6372631;27;19931;-64
2022/01/11 13:30:37;;;;;;;;;;;;;;;-14.74;57.44;97180.00;6373004;27;19924;-63
2022/01/11 13:33:41;;;;;;;;;;;;;;;-14.78;57.48;97183.19;6372630;27;19923;-64
2022/01/11 13:36:50;;;;;;;;;;;;;;;-14.80;57.67;97189.84;6373409;27;19927;-63
2022/01/11 13:39:54;;;;;;;;;;;;;;;-14.83;57.53;97184.69;6372626;27;19919;-65
2022/01/11 13:43:02;;;;;;;;;;;;;;;-14.82;57.81;97199.03;6373220;27;19923;-63
2022/01/11 13:46:14;;;;;;;;;;;;;;;-14.85;57.43;97206.50;6373165;27;19919;-64
2022/01/11 13:49:17;;;;;;;;;;;;;;;-14.86;57.55;97209.81;6371330;27;19988;-63
2022/01/11 13:52:23;;;;;;;;;;;;;;;-14.93;57.21;97204.53;6372672;27;19923;-64
2022/01/11 13:55:27;;;;;;;;;;;;;;;-14.98;57.57;97205.16;6371608;27;20404;-63
2022/01/11 13:58:29;;;;;;;;;;;;;;;-15.04;57.50;97210.81;6371801;27;19971;-63
2022/01/11 14:01:35;;;;;;;;;;;;;;;-15.08;57.83;97214.03;6372848;27;19923;-64
2022/01/11 14:04:39;;;;;;;;;;;;;;;-15.10;57.63;97210.59;6372032;27;20404;-64
2022/01/11 14:07:51;;;;;;;;;;;;;;;-15.12;57.86;97209.66;6371963;27;19923;-63
2022/01/11 14:11:05;;;;;;;;;;;;;;;-15.16;57.43;97215.41;6371559;27;19933;-64
2022/01/11 14:14:08;;;;;;;;;;;;;;;-15.17;57.42;97216.16;6371550;27;19963;-64
2022/01/11 14:17:16;;;;;;;;;;;;;;;-15.16;57.24;97210.34;6371333;27;19923;-63
2022/01/11 14:20:21;;;;;;;;;;;;;;;-15.25;56.91;97225.13;6372203;27;20316;-63
2022/01/11 14:23:22;;;;;;;;;;;;;;;-15.32;57.27;97228.19;6371566;27;19931;-65
2022/01/11 14:26:34;;;;;;;;;;;;;;;-15.40;57.45;97225.34;6371532;27;19923;-64
2022/01/11 14:29:34;;;;;;;;;;;;;;;-15.42;57.73;97240.44;6371007;27;20320;-63
2022/01/11 14:33:08;;;;;;;;;;;;;;;-15.47;57.51;97249.47;6371072;27;19964;-63
2022/01/11 14:36:11;;;;;;;;;;;;;;;-15.55;57.43;97243.22;6326302;27;19929;-63
2022/01/11 14:39:17;;;;;;;;;;;;;;;-15.60;57.38;97242.16;6372102;27;19923;-64
2022/01/11 14:42:22;;;;;;;;;;;;;;;-15.64;57.61;97248.75;6371305;27;19927;-63
2022/01/11 14:45:24;;;;;;;;;;;;;;;-15.63;57.65;97247.09;6370604;27;19924;-63
2022/01/11 14:48:39;;;;;;;;;;;;;;;-15.60;57.28;97247.22;6352239;27;19931;-64
2022/01/11 14:51:54;;;;;;;;;;;;;;;-15.58;57.99;97245.63;6371397;27;19923;-63
2022/01/11 14:54:57;;;;;;;;;;;;;;;-15.53;57.90;97246.69;6370896;27;19931;-64
2022/01/11 14:58:02;;;;;;;;;;;;;;;-15.51;57.62;97242.59;6370983;28;20326;-64
2022/01/11 15:01:08;;;;;;;;;;;;;;;-15.52;57.75;97245.03;6370768;27;20316;-65
2022/01/11 15:04:11;;;;;;;;;;;;;;;-15.51;58.06;97247.63;6370974;28;19923;-64
2022/01/11 15:07:15;;;;;;;;;;;;;;;-15.49;58.02;97246.00;6371240;28;19923;-64
2022/01/11 15:10:22;;;;;;;;;;;;;;;-15.52;57.92;97245.88;6370929;28;20304;-64
2022/01/11 15:13:25;;;;;;;;;;;;;;;-15.56;57.41;97251.59;6370458;28;19959;-64
2022/01/11 15:16:27;;;;;;;;;;;;;;;-15.60;58.54;97247.22;6371079;28;19928;-63
2022/01/11 15:19:31;;;;;;;;;;;;;;;-15.60;58.44;97257.31;6371033;28;19919;-64
2022/01/11 15:22:32;;;;;;;;;;;;;;;-15.64;58.46;97255.47;6370238;28;19923;-64
2022/01/11 15:25:33;;;;;;;;;;;;;;;-15.70;58.84;97260.28;6370066;28;20419;-63
2022/01/11 15:28:37;;;;;;;;;;;;;;;-15.73;58.63;97255.97;6369896;28;19930;-63
2022/01/11 15:31:41;;;;;;;;;;;;;;;-15.76;58.25;97257.50;6370414;28;20003;-65
2022/01/11 15:34:42;;;;;;;;;;;;;;;-15.80;58.61;97253.09;6370371;28;19949;-63
2022/01/11 15:37:43;;;;;;;;;;;;;;;-15.79;58.53;97254.81;6370372;28;20434;-64
2022/01/11 15:40:46;;;;;;;;;;;;;;;-15.79;57.68;97264.91;6371107;28;19923;-63
2022/01/11 15:43:51;;;;;;;;;;;;;;;-15.81;57.58;97261.47;6370893;28;20388;-64
2022/01/11 15:46:52;;;;;;;;;;;;;;;-15.92;57.63;97263.53;6370257;28;19923;-64
2022/01/11 15:49:53;;;;;;;;;;;;;;;-16.04;57.78;97257.97;6370279;28;20022;-63
2022/01/11 15:52:54;;;;;;;;;;;;;;;-16.11;57.70;97254.28;6370032;28;19923;-64